Rembert, South Carolina
Current Conditions -  °F | °C
As of 4:58 AM on Friday 28 Nov 2014 (Local Time) from KSSC Reporting Station
Clear Clear  
Wind Chill: -3°   Ceiling: Unl
Heat Index:   Visibility: 10mi
Dew Point: -3°   Wind: 6mph
Humidity: 83%   Direction: 310°NW
Pressure: 30.33"   Gusts: NA
Location:  34.1°N, 80.53°W
Report Text: KSSC 280958Z AUTO 31005KT 10SM CLR 00/M03 A3033 RMK AO2 SLP274 T10031029 $
Loading
Personal Weather Stations






























Interactive Weather Map New forecast layout! Learn more

10-Day Weather Forecast

Advertisements
Track Severe Weather on mobile